createdAt,value
2018-02-22T00:00:53.181Z,22.73
2018-02-22T00:03:20.649Z,23.30
2018-02-22T00:05:48.106Z,21.05
2018-02-22T00:08:15.572Z,19.98
2018-02-22T00:10:43.034Z,18.30
2018-02-22T00:13:10.493Z,15.98
2018-02-22T00:15:37.964Z,16.17
2018-02-22T00:18:06.189Z,18.37
2018-02-22T00:20:33.660Z,20.62
2018-02-22T00:23:01.124Z,16.20
2018-02-22T00:25:28.595Z,18.42
2018-02-22T00:27:56.054Z,18.17
2018-02-22T00:30:23.518Z,21.65
2018-02-22T00:32:50.998Z,22.15
2018-02-22T00:35:19.238Z,21.30
2018-02-22T00:37:46.698Z,15.38
2018-02-22T00:40:14.171Z,14.90
2018-02-22T00:42:41.633Z,17.48
2018-02-22T00:45:09.102Z,18.02
2018-02-22T00:47:36.553Z,20.45
2018-02-22T00:50:04.803Z,16.52
2018-02-22T00:52:32.257Z,16.05
2018-02-22T00:54:59.746Z,18.60
2018-02-22T00:57:27.974Z,18.42
2018-02-22T00:59:55.450Z,17.35
2018-02-22T01:02:22.910Z,17.17
2018-02-22T01:04:51.151Z,17.05
2018-02-22T01:07:18.609Z,17.87
2018-02-22T01:09:46.093Z,17.67
2018-02-22T01:12:13.556Z,20.15
2018-02-22T01:14:41.024Z,21.37
2018-02-22T01:17:08.491Z,21.70
2018-02-22T01:19:35.961Z,22.75
2018-02-22T01:22:04.202Z,20.50
2018-02-22T01:24:31.660Z,21.70
2018-02-22T01:26:59.136Z,20.77
2018-02-22T01:29:26.605Z,19.27
2018-02-22T01:31:54.069Z,20.55
2018-02-22T01:34:22.297Z,18.40
2018-02-22T01:36:49.777Z,16.20
2018-02-22T01:39:17.230Z,14.98
2018-02-22T01:41:44.703Z,17.87
2018-02-22T01:44:12.163Z,16.55
2018-02-22T01:46:39.637Z,19.20
2018-02-22T01:49:07.108Z,20.42
2018-02-22T01:51:35.345Z,19.92
2018-02-22T01:54:02.814Z,20.15
2018-02-22T01:56:30.284Z,20.67
2018-02-22T01:58:57.753Z,24.10
2018-02-22T02:01:25.989Z,18.17
2018-02-22T02:03:53.445Z,21.35
2018-02-22T02:06:20.932Z,17.42
2018-02-22T02:08:49.157Z,15.63
2018-02-22T02:11:16.619Z,14.60
2018-02-22T02:13:44.089Z,17.62
2018-02-22T02:16:11.553Z,20.42
2018-02-22T02:18:39.026Z,19.37
2018-02-22T02:21:06.486Z,23.83
2018-02-22T02:23:33.952Z,22.10
2018-02-22T02:26:02.186Z,19.95
2018-02-22T02:28:29.665Z,19.00
2018-02-22T02:30:57.129Z,19.08
2018-02-22T02:33:24.598Z,16.85
2018-02-22T02:35:52.063Z,17.48
2018-02-22T02:38:20.310Z,17.42
2018-02-22T02:40:47.772Z,20.48
2018-02-22T02:43:15.247Z,17.12
2018-02-22T02:45:42.713Z,19.80
2018-02-22T02:48:10.198Z,21.12
2018-02-22T02:50:37.655Z,18.80
2018-02-22T02:53:05.139Z,19.85
2018-02-22T02:55:32.606Z,23.55
2018-02-22T02:58:00.082Z,16.95
2018-02-22T03:00:27.552Z,22.67
2018-02-22T03:02:55.019Z,21.25
2018-02-22T03:05:22.491Z,20.80
2018-02-22T03:07:50.723Z,20.60
2018-02-22T03:10:18.190Z,16.12
2018-02-22T03:12:45.650Z,17.92
2018-02-22T03:15:13.132Z,21.83
2018-02-22T03:17:40.587Z,18.77
2018-02-22T03:20:08.818Z,19.52
2018-02-22T03:22:36.273Z,17.80
2018-02-22T03:25:03.743Z,20.95
2018-02-22T03:27:31.200Z,17.08
2018-02-22T03:29:58.666Z,20.12
2018-02-22T03:32:26.121Z,16.12
2018-02-22T03:34:53.590Z,15.98
2018-02-22T03:37:21.051Z,18.35
2018-02-22T03:39:48.520Z,18.17
2018-02-22T03:42:15.982Z,19.83
2018-02-22T03:44:43.458Z,18.98
2018-02-22T03:47:10.921Z,16.25
2018-02-22T03:49:38.394Z,18.90
2018-02-22T03:52:05.868Z,20.52
2018-02-22T03:54:33.339Z,21.33
2018-02-22T03:57:00.800Z,16.05
2018-02-22T03:59:28.277Z,18.50
2018-02-22T04:01:55.745Z,17.80
2018-02-22T04:04:23.201Z,16.85
2018-02-22T04:06:50.661Z,18.42
2018-02-22T04:09:18.883Z,18.67
2018-02-22T04:11:46.352Z,16.10
2018-02-22T04:14:13.818Z,17.35
2018-02-22T04:16:41.288Z,18.98
2018-02-22T04:19:08.739Z,18.65
2018-02-22T04:21:36.213Z,16.42
2018-02-22T04:24:03.687Z,16.02
2018-02-22T04:26:31.148Z,23.77
2018-02-22T04:28:58.614Z,20.00
2018-02-22T04:31:26.853Z,16.67
2018-02-22T04:33:54.329Z,20.52
2018-02-22T04:36:21.797Z,15.82
2018-02-22T04:38:50.043Z,15.50
2018-02-22T04:41:17.521Z,18.50
2018-02-22T04:43:45.764Z,16.95
2018-02-22T04:46:13.223Z,16.62
2018-02-22T04:48:40.687Z,16.62
2018-02-22T04:51:08.143Z,18.50
2018-02-22T04:53:35.598Z,22.50
2018-02-22T04:56:03.082Z,16.77
2018-02-22T04:58:30.546Z,17.95
2018-02-22T05:00:58.010Z,16.75
2018-02-22T05:03:26.233Z,17.55
2018-02-22T05:05:53.693Z,15.50
2018-02-22T05:08:21.154Z,17.90
2018-02-22T05:10:48.621Z,19.12
2018-02-22T05:13:16.080Z,15.73
2018-02-22T05:15:44.452Z,15.20
2018-02-22T05:18:11.918Z,17.15
2018-02-22T05:20:39.383Z,19.33
2018-02-22T05:23:06.854Z,16.98
2018-02-22T05:25:34.320Z,20.67
2018-02-22T05:28:01.777Z,19.83
2018-02-22T05:30:29.248Z,21.17
2018-02-22T05:32:57.478Z,17.52
2018-02-22T05:35:24.950Z,19.15
2018-02-22T05:37:52.415Z,21.40
2018-02-22T05:40:19.883Z,20.15
2018-02-22T05:42:47.359Z,16.83
2018-02-22T05:45:15.574Z,15.32
2018-02-22T05:47:43.049Z,16.62
2018-02-22T05:50:10.519Z,21.95
2018-02-22T05:52:37.994Z,17.33
2018-02-22T05:55:05.447Z,21.35
2018-02-22T05:57:32.921Z,16.55
2018-02-22T06:00:01.139Z,22.50
2018-02-22T06:02:28.614Z,19.12
2018-02-22T06:04:56.076Z,19.52
2018-02-22T06:07:23.547Z,19.58
2018-02-22T06:09:51.020Z,18.33
2018-02-22T06:12:18.488Z,21.20
2018-02-22T06:14:46.720Z,23.73
2018-02-22T06:17:14.185Z,18.02
2018-02-22T06:19:41.661Z,18.45
2018-02-22T06:22:09.150Z,18.75
2018-02-22T06:24:36.618Z,18.25
2018-02-22T06:27:04.076Z,18.48
2018-02-22T06:29:31.553Z,16.65
2018-02-22T06:31:59.009Z,20.25
2018-02-22T06:34:26.484Z,21.98
2018-02-22T06:36:53.943Z,19.62
2018-02-22T06:39:21.411Z,17.75
2018-02-22T06:41:48.867Z,18.52
2018-02-22T06:44:16.345Z,20.10
2018-02-22T06:46:43.793Z,16.55
2018-02-22T06:49:11.276Z,19.30
2018-02-22T06:51:38.735Z,23.80
2018-02-22T06:54:06.973Z,25.58
2018-02-22T06:56:35.201Z,23.80
2018-02-22T06:59:02.676Z,28.75
2018-02-22T07:01:30.144Z,22.13
2018-02-22T07:03:57.611Z,22.33
2018-02-22T07:06:25.078Z,24.08
2018-02-22T07:08:52.542Z,21.40
2018-02-22T07:11:20.003Z,21.77
2018-02-22T07:13:47.477Z,25.60
2018-02-22T07:16:14.926Z,26.00
2018-02-22T07:18:42.396Z,33.28
2018-02-22T07:21:09.867Z,28.62
2018-02-22T07:23:37.326Z,31.58
2018-02-22T07:26:04.791Z,28.40
2018-02-22T07:28:32.251Z,28.10
2018-02-22T07:30:59.729Z,33.58
2018-02-22T07:33:27.202Z,31.20
2018-02-22T07:35:54.674Z,30.62
2018-02-22T07:38:22.150Z,29.67
2018-02-22T07:40:49.619Z,29.37
2018-02-22T07:43:17.851Z,25.77
2018-02-22T07:45:45.320Z,22.13
2018-02-22T07:48:12.782Z,21.87
2018-02-22T07:50:40.256Z,22.65
2018-02-22T07:53:07.717Z,19.30
2018-02-22T07:55:35.184Z,20.80
2018-02-22T07:58:03.413Z,21.17
2018-02-22T08:00:30.892Z,22.60
2018-02-22T08:02:59.126Z,22.02
2018-02-22T08:05:26.605Z,20.67
2018-02-22T08:07:54.106Z,21.87
2018-02-22T08:10:22.392Z,21.67
2018-02-22T08:12:50.626Z,23.08
2018-02-22T08:15:18.092Z,25.70
2018-02-22T08:17:45.550Z,27.25
2018-02-22T08:20:13.021Z,26.02
2018-02-22T08:22:40.492Z,24.17
2018-02-22T08:25:07.962Z,26.42
2018-02-22T08:27:36.186Z,26.70
2018-02-22T08:30:03.653Z,29.43
2018-02-22T08:32:31.121Z,22.60
2018-02-22T08:34:58.590Z,24.80
2018-02-22T08:37:26.082Z,28.33
2018-02-22T08:39:53.537Z,26.37
2018-02-22T08:42:21.007Z,27.47
2018-02-22T08:44:48.463Z,25.30
2018-02-22T08:47:15.933Z,23.73
2018-02-22T08:49:43.402Z,23.90
2018-02-22T08:52:10.861Z,21.90
2018-02-22T08:54:38.325Z,25.53
2018-02-22T08:57:05.803Z,27.40
2018-02-22T08:59:33.249Z,24.73
2018-02-22T09:02:00.724Z,29.93
2018-02-22T09:04:28.170Z,27.20
2018-02-22T09:06:55.644Z,26.23
2018-02-22T09:09:23.097Z,25.73
2018-02-22T09:11:50.561Z,27.60
2018-02-22T09:14:18.009Z,26.13
2018-02-22T09:16:45.470Z,22.93
2018-02-22T09:19:12.926Z,25.47
2018-02-22T09:21:40.400Z,25.67
2018-02-22T09:24:07.850Z,20.57
2018-02-22T09:26:35.313Z,21.20
2018-02-22T09:29:02.778Z,22.67
2018-02-22T09:31:30.237Z,23.00
2018-02-22T09:33:58.464Z,22.60
2018-02-22T09:36:25.932Z,20.07
2018-02-22T09:38:53.389Z,22.90
2018-02-22T09:41:20.858Z,19.10
2018-02-22T09:43:48.326Z,20.70
2018-02-22T09:46:15.783Z,24.40
2018-02-22T09:48:43.234Z,24.63
2018-02-22T09:51:10.688Z,21.53
2018-02-22T09:53:38.171Z,18.47
2018-02-22T09:56:05.626Z,17.63
2018-02-22T09:58:33.087Z,20.17
2018-02-22T10:01:00.544Z,23.20
2018-02-22T10:03:28.014Z,18.70
2018-02-22T10:05:56.233Z,19.00
2018-02-22T10:08:23.693Z,18.80
2018-02-22T10:10:51.147Z,19.63
2018-02-22T10:13:18.614Z,17.57
2018-02-22T10:15:46.073Z,16.93
2018-02-22T10:18:13.539Z,19.50
2018-02-22T10:20:41.015Z,19.00
2018-02-22T10:23:08.477Z,16.03
2018-02-22T10:25:35.942Z,17.97
2018-02-22T10:28:03.393Z,18.10
2018-02-22T10:30:30.858Z,23.00
2018-02-22T10:32:58.320Z,24.10
2018-02-22T10:35:26.559Z,21.73
2018-02-22T10:37:54.022Z,24.17
2018-02-22T10:40:21.502Z,20.00
2018-02-22T10:42:48.958Z,19.47
2018-02-22T10:45:16.416Z,23.37
2018-02-22T10:47:43.874Z,21.00
2018-02-22T10:50:11.337Z,22.97
2018-02-22T10:52:38.790Z,21.17
2018-02-22T10:55:06.273Z,25.63
2018-02-22T10:57:34.485Z,19.73
2018-02-22T11:00:01.946Z,20.47
2018-02-22T11:02:35.011Z,19.00
2018-02-22T11:05:02.463Z,17.80
2018-02-22T11:07:29.931Z,19.30
2018-02-22T11:09:58.157Z,18.70
2018-02-22T11:12:25.626Z,19.10
2018-02-22T11:14:53.082Z,18.00
2018-02-22T11:17:20.542Z,17.57
2018-02-22T11:19:48.128Z,20.27
2018-02-22T11:22:15.548Z,16.63
2018-02-22T11:24:43.003Z,18.23
2018-02-22T11:27:10.474Z,20.53
2018-02-22T11:29:37.926Z,18.87
2018-02-22T11:32:05.387Z,16.97
2018-02-22T11:34:32.837Z,17.80
2018-02-22T11:37:00.298Z,18.93
2018-02-22T11:39:27.760Z,15.53
2018-02-22T11:41:55.217Z,15.97
2018-02-22T11:44:22.674Z,19.27
2018-02-22T11:46:50.158Z,16.23
2018-02-22T11:49:18.383Z,17.10
2018-02-22T11:51:45.841Z,17.77
2018-02-22T11:54:13.302Z,19.20
2018-02-22T11:56:40.759Z,18.27
2018-02-22T11:59:08.230Z,20.23
2018-02-22T12:01:35.688Z,17.97
2018-02-22T12:04:03.153Z,18.13
2018-02-22T12:06:30.614Z,17.00
2018-02-22T12:08:58.081Z,19.77
2018-02-22T12:11:26.304Z,18.20
2018-02-22T12:13:53.761Z,17.23
2018-02-22T12:16:21.222Z,17.00
2018-02-22T12:18:48.692Z,17.47
2018-02-22T12:21:16.156Z,18.83
2018-02-22T12:23:43.626Z,20.60
2018-02-22T12:26:11.091Z,17.50
2018-02-22T12:28:38.551Z,23.73
2018-02-22T12:31:06.014Z,20.43
2018-02-22T12:33:34.254Z,16.80
2018-02-22T12:36:01.723Z,17.30
2018-02-22T12:38:30.965Z,21.30
2018-02-22T12:40:58.422Z,19.37
2018-02-22T12:43:26.650Z,18.63
2018-02-22T12:45:54.109Z,17.93
2018-02-22T12:48:21.578Z,18.63
2018-02-22T12:50:49.043Z,16.93
2018-02-22T12:53:16.497Z,19.30
2018-02-22T12:55:43.969Z,17.30
2018-02-22T12:58:12.023Z,19.17
2018-02-22T13:00:39.518Z,18.83
2018-02-22T13:03:07.756Z,18.90
2018-02-22T13:05:35.240Z,20.47
2018-02-22T13:08:02.665Z,18.67
2018-02-22T13:10:55.329Z,14.67
2018-02-22T13:13:22.786Z,17.47
2018-02-22T13:15:50.250Z,15.10
2018-02-22T13:18:42.488Z,19.53
2018-02-22T13:24:03.878Z,15.43
2018-02-22T13:26:31.338Z,16.70
2018-02-22T13:28:58.799Z,14.47
2018-02-22T13:31:26.255Z,18.60
2018-02-22T13:34:06.280Z,18.67
2018-02-22T13:36:33.733Z,19.20
2018-02-22T13:39:12.627Z,20.93
2018-02-22T13:41:40.102Z,19.27
2018-02-22T13:44:19.297Z,20.10
2018-02-22T13:46:46.759Z,22.73
2018-02-22T13:49:26.051Z,22.57
2018-02-22T13:51:53.526Z,23.03
2018-02-22T13:54:20.974Z,19.47
2018-02-22T13:57:00.435Z,20.30
2018-02-22T13:59:27.926Z,19.40
2018-02-22T14:02:07.171Z,23.63
2018-02-22T14:04:45.478Z,23.23
2018-02-22T14:07:12.941Z,23.30
2018-02-22T14:09:41.169Z,21.53
2018-02-22T14:12:08.645Z,19.27
2018-02-22T14:14:36.093Z,24.53
2018-02-22T14:17:03.567Z,25.30
2018-02-22T14:31:06.579Z,24.23
2018-02-22T14:33:54.480Z,23.67
2018-02-22T14:36:21.955Z,25.27
2018-02-22T14:38:50.186Z,24.67
2018-02-22T14:41:17.640Z,28.27
2018-02-22T14:43:45.103Z,22.77
2018-02-22T14:46:12.556Z,22.03
2018-02-22T14:48:40.024Z,24.00
2018-02-22T14:51:07.478Z,26.67
2018-02-22T14:53:34.948Z,22.73
2018-02-22T14:56:02.408Z,22.87
2018-02-22T15:01:24.157Z,27.63
2018-02-22T15:03:51.623Z,29.83
2018-02-22T15:06:19.077Z,29.00
2018-02-22T15:08:46.539Z,26.23
2018-02-22T15:11:13.996Z,27.33
2018-02-22T15:13:41.464Z,31.80
2018-02-22T15:16:08.924Z,25.63
2018-02-22T15:18:36.383Z,26.47
2018-02-22T15:21:03.838Z,27.93
2018-02-22T15:23:32.666Z,31.50
2018-02-22T15:26:00.192Z,31.33
2018-02-22T15:28:27.669Z,27.03
2018-02-22T15:30:55.890Z,30.87
2018-02-22T15:33:23.351Z,26.10
2018-02-22T15:35:50.807Z,33.20
2018-02-22T15:38:18.271Z,34.20
2018-02-22T15:40:45.731Z,30.33
2018-02-22T15:43:13.195Z,34.27
2018-02-22T15:45:40.659Z,32.77
2018-02-22T15:48:08.977Z,25.57
2018-02-22T15:50:36.433Z,20.77
2018-02-22T15:53:03.909Z,15.83
2018-02-22T15:55:31.370Z,15.83
2018-02-22T15:57:58.826Z,14.97
2018-02-22T16:00:26.293Z,14.87
2018-02-22T16:02:53.752Z,11.73
2018-02-22T16:05:25.214Z,14.77
2018-02-22T16:07:52.698Z,12.57
2018-02-22T16:10:20.192Z,11.80
2018-02-22T16:12:47.672Z,10.50
2018-02-22T16:15:15.160Z,10.90
2018-02-22T16:17:42.654Z,11.10
2018-02-22T16:20:10.914Z,12.77
2018-02-22T16:22:38.415Z,12.27
2018-02-22T16:25:05.917Z,11.52
2018-02-22T16:27:33.455Z,12.00
2018-02-22T16:30:00.944Z,9.50
2018-02-22T16:32:28.419Z,9.57
2018-02-22T16:34:56.675Z,7.40
2018-02-22T16:37:24.913Z,6.13
2018-02-22T16:39:52.404Z,4.67
2018-02-22T16:42:19.880Z,3.83
2018-02-22T16:44:48.147Z,5.07
2018-02-22T16:47:15.623Z,4.60
2018-02-22T16:49:43.893Z,4.65
2018-02-22T16:55:02.731Z,2.87
2018-02-22T16:57:30.206Z,3.35
2018-02-22T16:59:57.679Z,3.97
2018-02-22T17:02:25.141Z,5.00
2018-02-22T17:04:52.602Z,2.47
2018-02-22T17:07:20.842Z,3.67
2018-02-22T17:09:48.307Z,5.93
2018-02-22T17:12:15.785Z,3.53
2018-02-22T17:14:44.014Z,3.67
2018-02-22T17:17:11.476Z,3.58
2018-02-22T17:19:38.933Z,3.35
2018-02-22T17:22:06.395Z,4.85
2018-02-22T17:24:33.850Z,3.40
2018-02-22T17:27:06.954Z,2.78
2018-02-22T17:29:44.650Z,3.12
2018-02-22T17:32:17.837Z,2.35
2018-02-22T17:34:52.606Z,3.12
2018-02-22T17:37:20.829Z,3.95
2018-02-22T17:40:06.100Z,4.25
2018-02-22T17:42:36.948Z,3.03
2018-02-22T17:45:04.394Z,3.83
2018-02-22T17:47:31.853Z,2.80
2018-02-22T17:49:59.316Z,2.85
2018-02-22T17:52:26.772Z,2.97
2018-02-22T17:54:54.227Z,5.18
2018-02-22T17:57:28.088Z,6.07
2018-02-22T18:00:09.536Z,2.95
2018-02-22T18:02:37.799Z,4.72
2018-02-22T18:05:05.259Z,3.83
2018-02-22T18:07:32.710Z,2.85
2018-02-22T18:10:00.168Z,3.15
2018-02-22T18:12:27.627Z,2.90
2018-02-22T18:14:55.076Z,2.55
2018-02-22T18:17:22.549Z,3.65
2018-02-22T18:19:49.984Z,3.15
2018-02-22T18:22:17.452Z,3.30
2018-02-22T18:24:44.900Z,3.47
2018-02-22T18:27:12.358Z,3.97
2018-02-22T18:29:39.810Z,6.72
2018-02-22T18:32:07.284Z,2.87
2018-02-22T18:34:34.729Z,4.05
2018-02-22T18:37:02.177Z,3.00
2018-02-22T18:39:29.625Z,3.67
2018-02-22T18:42:03.607Z,3.87
2018-02-22T18:44:36.860Z,3.33
2018-02-22T18:47:05.090Z,5.70
2018-02-22T18:49:32.554Z,4.05
2018-02-22T18:52:00.012Z,3.53
2018-02-22T18:54:28.251Z,4.87
2018-02-22T18:56:55.716Z,4.10
2018-02-22T18:59:23.168Z,3.60
2018-02-22T19:01:50.617Z,4.85
2018-02-22T19:04:18.086Z,5.20
2018-02-22T19:06:45.536Z,4.40
2018-02-22T19:09:12.997Z,3.45
2018-02-22T19:11:40.458Z,3.40
2018-02-22T19:14:07.923Z,4.57
2018-02-22T19:16:35.364Z,4.28
2018-02-22T19:19:02.850Z,6.68
2018-02-22T19:21:30.312Z,5.75
2018-02-22T19:23:57.784Z,2.95
2018-02-22T19:26:26.005Z,4.10
2018-02-22T19:28:53.474Z,6.15
2018-02-22T19:31:20.931Z,5.20
2018-02-22T19:33:48.399Z,4.62
2018-02-22T19:36:15.859Z,5.00
2018-02-22T19:38:44.297Z,6.45
2018-02-22T19:41:11.976Z,3.35
2018-02-22T19:43:39.514Z,4.28
2018-02-22T19:46:06.971Z,4.15
2018-02-22T19:48:34.442Z,3.40
2018-02-22T19:51:02.658Z,3.20
2018-02-22T19:53:30.118Z,5.40
2018-02-22T19:55:57.568Z,5.30
2018-02-22T19:58:25.030Z,5.43
2018-02-22T20:00:53.742Z,4.65
2018-02-22T20:03:21.194Z,4.37
2018-02-22T20:05:48.642Z,5.75
2018-02-22T20:08:16.117Z,3.78
2018-02-22T20:10:44.340Z,5.15
2018-02-22T20:13:11.800Z,4.47
2018-02-22T20:15:39.270Z,4.35
2018-02-22T20:18:06.716Z,3.92
2018-02-22T20:20:34.189Z,6.82
2018-02-22T20:23:01.645Z,7.57
2018-02-22T20:25:29.121Z,4.20
2018-02-22T20:27:56.575Z,4.72
2018-02-22T20:30:24.033Z,4.87
2018-02-22T20:32:51.484Z,3.90
2018-02-22T20:35:18.945Z,4.87
2018-02-22T20:37:46.437Z,6.15
2018-02-22T20:40:13.844Z,4.53
2018-02-22T20:42:41.307Z,6.90
2018-02-22T20:45:08.763Z,5.68
2018-02-22T20:47:36.220Z,4.05
2018-02-22T20:50:03.685Z,4.47
2018-02-22T20:52:33.552Z,6.03
2018-02-22T20:55:10.901Z,3.50
2018-02-22T20:57:38.495Z,4.20
2018-02-22T21:00:05.978Z,3.78
2018-02-22T21:02:33.576Z,5.18
2018-02-22T21:05:01.080Z,4.57
2018-02-22T21:07:29.325Z,4.90
2018-02-22T21:09:56.868Z,3.83
2018-02-22T21:12:24.413Z,4.57
2018-02-22T21:14:51.923Z,3.60
2018-02-22T21:17:20.143Z,5.03
2018-02-22T21:19:47.600Z,3.92
2018-02-22T21:22:15.047Z,4.45
2018-02-22T21:24:42.515Z,5.70
2018-02-22T21:27:10.736Z,4.32
2018-02-22T21:29:39.498Z,3.85
2018-02-22T21:32:07.445Z,4.60
2018-02-22T21:34:55.072Z,3.78
2018-02-22T21:37:23.042Z,6.75
2018-02-22T21:39:51.012Z,5.12
2018-02-22T21:42:19.191Z,4.05
2018-02-22T21:44:46.934Z,4.18
2018-02-22T21:47:14.926Z,4.73
2018-02-22T21:49:42.892Z,5.10
2018-02-22T21:52:10.864Z,4.07
2018-02-22T21:54:38.831Z,3.83
2018-02-22T21:57:06.543Z,4.85
2018-02-22T21:59:34.462Z,4.50
2018-02-22T22:02:02.434Z,4.53
2018-02-22T22:04:30.718Z,4.37
2018-02-22T22:06:58.887Z,5.45
2018-02-22T22:09:27.266Z,3.78
2018-02-22T22:11:54.725Z,4.75
2018-02-22T22:14:22.180Z,4.47
2018-02-22T22:16:49.633Z,4.12
2018-02-22T22:19:17.095Z,3.60
2018-02-22T22:21:44.552Z,4.15
2018-02-22T22:24:12.006Z,3.80
2018-02-22T22:26:39.469Z,3.65
2018-02-22T22:29:06.924Z,4.53
2018-02-22T22:31:34.385Z,4.72
2018-02-22T22:34:01.870Z,6.87
2018-02-22T22:36:29.322Z,6.28
2018-02-22T22:38:56.794Z,4.97
2018-02-22T22:41:24.240Z,8.38
2018-02-22T22:43:51.708Z,7.30
2018-02-22T22:46:19.152Z,7.12
2018-02-22T22:48:46.617Z,6.78
2018-02-22T22:51:14.062Z,6.05
2018-02-22T22:53:41.530Z,5.65
2018-02-22T22:56:08.990Z,5.57
2018-02-22T22:58:36.456Z,6.90
2018-02-22T23:01:03.918Z,6.65
2018-02-22T23:03:31.385Z,6.57
2018-02-22T23:05:59.620Z,9.00
2018-02-22T23:08:27.130Z,8.18
2018-02-22T23:10:54.547Z,7.28
2018-02-22T23:13:22.046Z,6.40
2018-02-22T23:15:50.272Z,6.10
2018-02-22T23:18:17.736Z,8.70
2018-02-22T23:20:45.186Z,6.87
2018-02-22T23:23:12.645Z,9.40
2018-02-22T23:25:40.092Z,7.45
2018-02-22T23:28:07.545Z,8.88
2018-02-22T23:30:35.017Z,7.95
2018-02-22T23:33:02.468Z,10.13
2018-02-22T23:35:30.433Z,9.60
2018-02-22T23:37:58.405Z,8.50
2018-02-22T23:40:32.317Z,8.80
2018-02-22T23:42:59.821Z,10.85
2018-02-22T23:45:28.064Z,9.73
2018-02-22T23:47:55.515Z,9.98
2018-02-22T23:50:22.986Z,10.55
2018-02-22T23:52:50.440Z,8.18
2018-02-22T23:55:17.909Z,11.20
2018-02-22T23:57:45.365Z,9.48
